Terminal Aerodrome Forecast
Issued by NWS

Home | Current Version | Previous Version | Text Only | Print | Product List | Glossary On
Versions: 1 2 3 4 5 6 7 8 9 10 11 12
000
FTPA31 PHFO 230539
TAFHMK
TAF
PHMK 230539Z 2306/2406 04011G18KT P6SM VCSH SCT025 BKN040
      TEMPO 2306/2310 BKN025
     FM232000 05015G23KT P6SM FEW025 SCT040
     FM240500 05011G15KT P6SM FEW025 SCT040=

USA.gov is the U.S. government's official web portal to all federal, state and local government web resources and services.